sensor_id;sensor_type;location;lat;lon;timestamp;pressure;altitude;pressure_sealevel;temperature;humidity
9261;BME280;4667;42.726;23.252;2023-09-30T00:00:01;95662.13;;;14.81;55.75
9261;BME280;4667;42.726;23.252;2023-09-30T00:02:28;95632.38;;;14.64;55.64
9261;BME280;4667;42.726;23.252;2023-09-30T00:04:56;95655.47;;;14.94;55.36
9261;BME280;4667;42.726;23.252;2023-09-30T00:07:23;95586.38;;;14.48;55.83
9261;BME280;4667;42.726;23.252;2023-09-30T00:09:50;95654.44;;;15.00;55.73
9261;BME280;4667;42.726;23.252;2023-09-30T00:12:17;95653.38;;;14.96;55.79
9261;BME280;4667;42.726;23.252;2023-09-30T00:14:44;95644.06;;;15.04;55.41
9261;BME280;4667;42.726;23.252;2023-09-30T00:17:11;95660.28;;;15.07;55.39
9261;BME280;4667;42.726;23.252;2023-09-30T00:19:37;95591.75;;;14.84;54.98
9261;BME280;4667;42.726;23.252;2023-09-30T00:22:07;95642.22;;;15.09;55.43
9261;BME280;4667;42.726;23.252;2023-09-30T00:24:34;95646.22;;;15.07;56.04
9261;BME280;4667;42.726;23.252;2023-09-30T00:27:01;95646.22;;;15.22;55.54
9261;BME280;4667;42.726;23.252;2023-09-30T00:29:28;95644.34;;;15.28;54.49
9261;BME280;4667;42.726;23.252;2023-09-30T00:31:54;95514.72;;;14.53;54.61
9261;BME280;4667;42.726;23.252;2023-09-30T00:34:21;95636.09;;;15.40;54.60
9261;BME280;4667;42.726;23.252;2023-09-30T00:36:48;95638.22;;;15.53;54.46
9261;BME280;4667;42.726;23.252;2023-09-30T00:39:16;95628.41;;;15.48;54.57
9261;BME280;4667;42.726;23.252;2023-09-30T00:41:42;95639.81;;;15.49;54.60
9261;BME280;4667;42.726;23.252;2023-09-30T00:44:09;95633.97;;;15.62;54.48
9261;BME280;4667;42.726;23.252;2023-09-30T00:46:37;95641.69;;;15.64;54.71
9261;BME280;4667;42.726;23.252;2023-09-30T00:49:06;95574.75;;;15.31;54.29
9261;BME280;4667;42.726;23.252;2023-09-30T00:51:35;95524.81;;;15.13;53.77
9261;BME280;4667;42.726;23.252;2023-09-30T00:54:03;95629.16;;;15.84;54.36
9261;BME280;4667;42.726;23.252;2023-09-30T00:56:32;95541.25;;;15.30;53.76
9261;BME280;4667;42.726;23.252;2023-09-30T00:59:00;95628.03;;;15.96;53.63
9261;BME280;4667;42.726;23.252;2023-09-30T01:01:28;95585.56;;;15.75;53.58
9261;BME280;4667;42.726;23.252;2023-09-30T01:03:54;95629.09;;;16.05;53.60
9261;BME280;4667;42.726;23.252;2023-09-30T01:06:21;95570.16;;;15.72;53.67
9261;BME280;4667;42.726;23.252;2023-09-30T01:08:48;95632.03;;;15.98;54.06
9261;BME280;4667;42.726;23.252;2023-09-30T01:11:15;95568.28;;;15.63;53.97
9261;BME280;4667;42.726;23.252;2023-09-30T01:13:44;95578.91;;;15.78;53.79
9261;BME280;4667;42.726;23.252;2023-09-30T01:16:12;95623.25;;;16.03;54.00
9261;BME280;4667;42.726;23.252;2023-09-30T01:18:39;95628.03;;;16.01;53.96
9261;BME280;4667;42.726;23.252;2023-09-30T01:21:08;95623.00;;;15.94;54.16
9261;BME280;4667;42.726;23.252;2023-09-30T01:23:37;95567.00;;;15.45;54.40
9261;BME280;4667;42.726;23.252;2023-09-30T01:26:07;95610.03;;;15.77;54.27
9261;BME280;4667;42.726;23.252;2023-09-30T01:28:35;95630.47;;;15.87;54.37
9261;BME280;4667;42.726;23.252;2023-09-30T01:31:02;95519.47;;;15.23;54.46
9261;BME280;4667;42.726;23.252;2023-09-30T01:33:29;95629.91;;;15.95;54.51
9261;BME280;4667;42.726;23.252;2023-09-30T01:35:57;95625.69;;;15.89;54.67
9261;BME280;4667;42.726;23.252;2023-09-30T01:38:23;95597.53;;;15.73;54.54
9261;BME280;4667;42.726;23.252;2023-09-30T01:40:52;95631.50;;;15.91;54.64
9261;BME280;4667;42.726;23.252;2023-09-30T01:43:19;95625.38;;;15.96;54.52
9261;BME280;4667;42.726;23.252;2023-09-30T01:45:46;95629.91;;;15.95;54.54
9261;BME280;4667;42.726;23.252;2023-09-30T01:48:13;95631.00;;;15.89;54.87
9261;BME280;4667;42.726;23.252;2023-09-30T01:50:40;95478.91;;;14.87;54.50
9261;BME280;4667;42.726;23.252;2023-09-30T01:53:07;95587.97;;;15.62;54.36
9261;BME280;4667;42.726;23.252;2023-09-30T01:55:34;95575.22;;;15.48;54.67
9261;BME280;4667;42.726;23.252;2023-09-30T01:58:03;95628.06;;;15.85;54.54
9261;BME280;4667;42.726;23.252;2023-09-30T02:00:30;95626.75;;;15.83;54.45
9261;BME280;4667;42.726;23.252;2023-09-30T02:02:57;95624.09;;;15.83;54.49
9261;BME280;4667;42.726;23.252;2023-09-30T02:05:24;95624.63;;;15.80;54.33
9261;BME280;4667;42.726;23.252;2023-09-30T02:07:51;95635.31;;;15.65;54.81
9261;BME280;4667;42.726;23.252;2023-09-30T02:10:19;95601.81;;;15.48;54.67
9261;BME280;4667;42.726;23.252;2023-09-30T02:12:46;95498.28;;;14.62;55.36
9261;BME280;4667;42.726;23.252;2023-09-30T02:15:14;95620.69;;;15.42;55.31
9261;BME280;4667;42.726;23.252;2023-09-30T02:17:41;95619.66;;;15.32;55.53
9261;BME280;4667;42.726;23.252;2023-09-30T02:20:11;95587.50;;;14.98;56.12
9261;BME280;4667;42.726;23.252;2023-09-30T02:22:41;95625.75;;;15.18;56.21
9261;BME280;4667;42.726;23.252;2023-09-30T02:25:09;95621.78;;;15.10;56.50
9261;BME280;4667;42.726;23.252;2023-09-30T02:27:38;95550.25;;;14.42;57.18
9261;BME280;4667;42.726;23.252;2023-09-30T02:30:06;95641.16;;;14.80;57.28
9261;BME280;4667;42.726;23.252;2023-09-30T02:32:34;95634.19;;;14.59;58.03
9261;BME280;4667;42.726;23.252;2023-09-30T02:35:01;95523.34;;;13.88;57.86
9261;BME280;4667;42.726;23.252;2023-09-30T02:37:32;95636.84;;;14.59;57.80
9261;BME280;4667;42.726;23.252;2023-09-30T02:40:00;95627.25;;;14.47;58.33
9261;BME280;4667;42.726;23.252;2023-09-30T02:42:29;95607.00;;;14.21;58.69
9261;BME280;4667;42.726;23.252;2023-09-30T02:44:56;95628.28;;;14.41;58.69
9261;BME280;4667;42.726;23.252;2023-09-30T02:47:22;95462.97;;;13.32;58.97
9261;BME280;4667;42.726;23.252;2023-09-30T02:49:50;95555.38;;;13.76;59.28
9261;BME280;4667;42.726;23.252;2023-09-30T02:52:17;95633.25;;;14.22;59.41
9261;BME280;4667;42.726;23.252;2023-09-30T02:54:44;95550.28;;;13.64;59.34
9261;BME280;4667;42.726;23.252;2023-09-30T02:57:10;95627.91;;;14.12;59.65
9261;BME280;4667;42.726;23.252;2023-09-30T02:59:37;95631.09;;;14.09;59.67
9261;BME280;4667;42.726;23.252;2023-09-30T03:02:04;95634.84;;;14.13;59.67
9261;BME280;4667;42.726;23.252;2023-09-30T03:04:32;95631.38;;;14.08;59.59
9261;BME280;4667;42.726;23.252;2023-09-30T03:07:00;95501.00;;;13.16;59.62
9261;BME280;4667;42.726;23.252;2023-09-30T03:09:27;95634.75;;;13.93;59.98
9261;BME280;4667;42.726;23.252;2023-09-30T03:11:54;95525.91;;;13.20;60.14
9261;BME280;4667;42.726;23.252;2023-09-30T03:14:21;95415.53;;;12.36;60.31
9261;BME280;4667;42.726;23.252;2023-09-30T03:16:48;95632.50;;;13.74;60.48
9261;BME280;4667;42.726;23.252;2023-09-30T03:19:15;95628.28;;;13.73;60.41
9261;BME280;4667;42.726;23.252;2023-09-30T03:21:43;95630.56;;;13.60;60.79
9261;BME280;4667;42.726;23.252;2023-09-30T03:24:11;95632.47;;;13.64;60.60
9261;BME280;4667;42.726;23.252;2023-09-30T03:26:38;95630.50;;;13.49;61.25
9261;BME280;4667;42.726;23.252;2023-09-30T03:29:06;95628.66;;;13.50;61.12
9261;BME280;4667;42.726;23.252;2023-09-30T03:31:34;95634.50;;;13.52;61.05
9261;BME280;4667;42.726;23.252;2023-09-30T03:34:02;95631.03;;;13.46;61.31
9261;BME280;4667;42.726;23.252;2023-09-30T03:36:29;95627.09;;;13.54;61.20
9261;BME280;4667;42.726;23.252;2023-09-30T03:38:57;95623.06;;;13.41;61.75
9261;BME280;4667;42.726;23.252;2023-09-30T03:41:33;95567.56;;;12.92;61.79
9261;BME280;4667;42.726;23.252;2023-09-30T03:44:00;95623.47;;;13.28;62.03
9261;BME280;4667;42.726;23.252;2023-09-30T03:46:28;95631.72;;;13.32;61.95
9261;BME280;4667;42.726;23.252;2023-09-30T03:48:55;95589.41;;;13.10;61.89
9261;BME280;4667;42.726;23.252;2023-09-30T03:51:22;95634.88;;;13.29;62.36
9261;BME280;4667;42.726;23.252;2023-09-30T03:53:50;95589.31;;;12.99;62.05
9261;BME280;4667;42.726;23.252;2023-09-30T03:56:17;95625.06;;;13.29;62.07
9261;BME280;4667;42.726;23.252;2023-09-30T03:58:46;95596.09;;;13.17;62.01
9261;BME280;4667;42.726;23.252;2023-09-30T04:01:13;95625.06;;;13.29;62.36
9261;BME280;4667;42.726;23.252;2023-09-30T04:03:42;95498.31;;;12.36;62.50
9261;BME280;4667;42.726;23.252;2023-09-30T04:06:09;95525.38;;;12.48;62.77
9261;BME280;4667;42.726;23.252;2023-09-30T04:08:36;95632.59;;;13.15;62.75
9261;BME280;4667;42.726;23.252;2023-09-30T04:11:03;95626.50;;;13.15;62.63
9261;BME280;4667;42.726;23.252;2023-09-30T04:13:30;95633.31;;;13.00;63.08
9261;BME280;4667;42.726;23.252;2023-09-30T04:15:58;95634.25;;;12.89;63.38
9261;BME280;4667;42.726;23.252;2023-09-30T04:18:25;95639.88;;;12.98;62.91
9261;BME280;4667;42.726;23.252;2023-09-30T04:20:52;95634.06;;;12.96;63.08
9261;BME280;4667;42.726;23.252;2023-09-30T04:23:19;95613.53;;;12.81;63.19
9261;BME280;4667;42.726;23.252;2023-09-30T04:25:47;95642.88;;;13.07;62.92
9261;BME280;4667;42.726;23.252;2023-09-30T04:28:15;95532.91;;;12.30;63.11
9261;BME280;4667;42.726;23.252;2023-09-30T04:30:46;95645.22;;;13.03;63.06
9261;BME280;4667;42.726;23.252;2023-09-30T04:33:16;95540.41;;;12.43;62.73
9261;BME280;4667;42.726;23.252;2023-09-30T04:35:44;95356.22;;;11.13;62.66
9261;BME280;4667;42.726;23.252;2023-09-30T04:38:13;95012.69;;;8.89;62.62
9261;BME280;4667;42.726;23.252;2023-09-30T04:40:41;95239.34;;;10.42;62.92
9261;BME280;4667;42.726;23.252;2023-09-30T04:43:09;95328.69;;;10.82;63.22
9261;BME280;4667;42.726;23.252;2023-09-30T04:45:36;95654.75;;;13.04;63.15
9261;BME280;4667;42.726;23.252;2023-09-30T04:48:03;95660.09;;;13.09;62.92
9261;BME280;4667;42.726;23.252;2023-09-30T04:50:32;95661.47;;;13.12;62.61
9261;BME280;4667;42.726;23.252;2023-09-30T04:52:58;95618.31;;;12.84;62.44
9261;BME280;4667;42.726;23.252;2023-09-30T04:55:25;95623.66;;;12.89;62.36
9261;BME280;4667;42.726;23.252;2023-09-30T04:57:52;95614.06;;;12.83;62.35
9261;BME280;4667;42.726;23.252;2023-09-30T05:00:19;95663.22;;;13.28;61.88
9261;BME280;4667;42.726;23.252;2023-09-30T05:02:50;95634.38;;;13.05;61.91
9261;BME280;4667;42.726;23.252;2023-09-30T05:05:18;95665.59;;;13.30;61.85
9261;BME280;4667;42.726;23.252;2023-09-30T05:07:46;95669.09;;;13.35;62.01
9261;BME280;4667;42.726;23.252;2023-09-30T05:10:14;95589.75;;;12.86;61.81
9261;BME280;4667;42.726;23.252;2023-09-30T05:12:41;95412.47;;;11.85;61.59
9261;BME280;4667;42.726;23.252;2023-09-30T05:15:11;95677.66;;;13.47;61.71
9261;BME280;4667;42.726;23.252;2023-09-30T05:17:38;95679.88;;;13.61;61.43
9261;BME280;4667;42.726;23.252;2023-09-30T05:20:06;95632.78;;;13.36;61.11
9261;BME280;4667;42.726;23.252;2023-09-30T05:22:33;95535.69;;;12.77;60.81
9261;BME280;4667;42.726;23.252;2023-09-30T05:25:02;95677.09;;;13.83;60.68
9261;BME280;4667;42.726;23.252;2023-09-30T05:27:28;95691.44;;;13.87;60.29
9261;BME280;4667;42.726;23.252;2023-09-30T05:29:54;95683.03;;;14.00;59.82
9261;BME280;4667;42.726;23.252;2023-09-30T05:32:21;95679.59;;;14.04;59.07
9261;BME280;4667;42.726;23.252;2023-09-30T05:34:48;95692.63;;;14.11;58.82
9261;BME280;4667;42.726;23.252;2023-09-30T05:37:15;95682.09;;;14.26;57.86
9261;BME280;4667;42.726;23.252;2023-09-30T05:39:44;95692.75;;;14.37;57.36
9261;BME280;4667;42.726;23.252;2023-09-30T05:42:12;95610.63;;;13.99;57.29
9261;BME280;4667;42.726;23.252;2023-09-30T05:44:39;95686.25;;;14.65;56.54
9261;BME280;4667;42.726;23.252;2023-09-30T05:47:06;95691.03;;;14.73;56.15
9261;BME280;4667;42.726;23.252;2023-09-30T05:49:33;95695.28;;;14.79;55.83
9261;BME280;4667;42.726;23.252;2023-09-30T05:52:02;95694.78;;;14.87;55.89
9261;BME280;4667;42.726;23.252;2023-09-30T05:54:28;95692.69;;;14.99;55.15
9261;BME280;4667;42.726;23.252;2023-09-30T05:56:55;95692.44;;;14.96;55.07
9261;BME280;4667;42.726;23.252;2023-09-30T05:59:23;95501.88;;;13.84;54.68
9261;BME280;4667;42.726;23.252;2023-09-30T06:01:51;95699.88;;;15.14;54.80
9261;BME280;4667;42.726;23.252;2023-09-30T06:04:17;95687.38;;;15.25;54.60
9261;BME280;4667;42.726;23.252;2023-09-30T06:06:45;95677.59;;;15.20;54.26
9261;BME280;4667;42.726;23.252;2023-09-30T06:09:11;95666.41;;;15.23;54.39
9261;BME280;4667;42.726;23.252;2023-09-30T06:11:38;95698.31;;;15.49;54.55
9261;BME280;4667;42.726;23.252;2023-09-30T06:14:07;95704.97;;;15.67;53.87
9261;BME280;4667;42.726;23.252;2023-09-30T06:16:35;95434.81;;;14.04;53.61
9261;BME280;4667;42.726;23.252;2023-09-30T06:19:02;95609.03;;;15.22;53.68
9261;BME280;4667;42.726;23.252;2023-09-30T06:21:29;95644.63;;;15.26;53.37
9261;BME280;4667;42.726;23.252;2023-09-30T06:23:56;95704.38;;;16.00;52.72
9261;BME280;4667;42.726;23.252;2023-09-30T06:26:26;95696.66;;;16.09;52.83
9261;BME280;4667;42.726;23.252;2023-09-30T06:28:54;95588.53;;;15.43;52.40
9261;BME280;4667;42.726;23.252;2023-09-30T06:31:21;95518.97;;;15.21;52.56
9261;BME280;4667;42.726;23.252;2023-09-30T06:33:49;95711.69;;;16.54;52.19
9261;BME280;4667;42.726;23.252;2023-09-30T06:36:16;95706.81;;;16.67;51.89
9261;BME280;4667;42.726;23.252;2023-09-30T06:38:43;95650.28;;;16.30;51.01
9261;BME280;4667;42.726;23.252;2023-09-30T06:41:15;95708.91;;;16.85;50.67
9261;BME280;4667;42.726;23.252;2023-09-30T06:43:42;95623.25;;;16.57;49.88
9261;BME280;4667;42.726;23.252;2023-09-30T06:46:09;95339.00;;;14.72;49.42
9261;BME280;4667;42.726;23.252;2023-09-30T06:48:36;95590.47;;;16.62;48.83
9261;BME280;4667;42.726;23.252;2023-09-30T06:51:07;95707.09;;;17.54;48.14
9261;BME280;4667;42.726;23.252;2023-09-30T06:53:33;95720.94;;;17.61;47.80
9261;BME280;4667;42.726;23.252;2023-09-30T06:56:04;95710.56;;;17.88;46.04
9261;BME280;4667;42.726;23.252;2023-09-30T06:58:31;95693.31;;;17.76;45.84
9261;BME280;4667;42.726;23.252;2023-09-30T07:00:58;95715.47;;;18.05;45.67
9261;BME280;4667;42.726;23.252;2023-09-30T07:03:25;95666.00;;;17.89;45.65
9261;BME280;4667;42.726;23.252;2023-09-30T07:05:52;95679.75;;;18.25;45.58
9261;BME280;4667;42.726;23.252;2023-09-30T07:08:21;95680.59;;;18.44;45.85
9261;BME280;4667;42.726;23.252;2023-09-30T07:10:48;95683.56;;;18.62;45.00
9261;BME280;4667;42.726;23.252;2023-09-30T07:13:15;95723.88;;;19.08;44.39
9261;BME280;4667;42.726;23.252;2023-09-30T07:15:43;95714.06;;;19.22;43.25
9261;BME280;4667;42.726;23.252;2023-09-30T07:18:10;95707.59;;;19.42;42.70
9261;BME280;4667;42.726;23.252;2023-09-30T07:20:38;95710.63;;;19.55;41.75
9261;BME280;4667;42.726;23.252;2023-09-30T07:23:05;95710.78;;;19.63;42.16
9261;BME280;4667;42.726;23.252;2023-09-30T07:25:33;95713.41;;;19.82;42.11
9261;BME280;4667;42.726;23.252;2023-09-30T07:28:00;95713.78;;;20.08;42.11
9261;BME280;4667;42.726;23.252;2023-09-30T07:30:27;95717.47;;;20.40;41.42
9261;BME280;4667;42.726;23.252;2023-09-30T07:32:53;95710.19;;;20.95;40.67
9261;BME280;4667;42.726;23.252;2023-09-30T07:35:20;95723.22;;;21.38;38.68
9261;BME280;4667;42.726;23.252;2023-09-30T07:37:47;95705.13;;;22.20;36.43
9261;BME280;4667;42.726;23.252;2023-09-30T07:40:17;95607.78;;;22.31;34.99
9261;BME280;4667;42.726;23.252;2023-09-30T07:42:45;95702.56;;;23.55;33.80
9261;BME280;4667;42.726;23.252;2023-09-30T07:45:12;95705.66;;;24.00;31.82
9261;BME280;4667;42.726;23.252;2023-09-30T07:47:43;95590.88;;;23.78;31.23
9261;BME280;4667;42.726;23.252;2023-09-30T07:50:10;95714.53;;;24.56;30.35
9261;BME280;4667;42.726;23.252;2023-09-30T07:52:37;95658.88;;;25.02;28.58
9261;BME280;4667;42.726;23.252;2023-09-30T07:55:06;95709.38;;;25.85;28.45
9261;BME280;4667;42.726;23.252;2023-09-30T07:57:33;95709.81;;;26.33;27.44
9261;BME280;4667;42.726;23.252;2023-09-30T08:00:01;95550.84;;;25.32;26.93
9261;BME280;4667;42.726;23.252;2023-09-30T08:02:29;95705.47;;;26.89;26.38
9261;BME280;4667;42.726;23.252;2023-09-30T08:04:58;95703.44;;;27.51;25.75
9261;BME280;4667;42.726;23.252;2023-09-30T08:07:26;95643.91;;;27.39;25.03
9261;BME280;4667;42.726;23.252;2023-09-30T08:09:53;95633.81;;;27.67;24.20
9261;BME280;4667;42.726;23.252;2023-09-30T08:12:20;95648.03;;;27.77;24.06
9261;BME280;4667;42.726;23.252;2023-09-30T08:14:47;95705.66;;;28.49;24.47
9261;BME280;4667;42.726;23.252;2023-09-30T08:17:15;95696.00;;;28.99;24.14
9261;BME280;4667;42.726;23.252;2023-09-30T08:19:43;95613.06;;;28.86;23.23
9261;BME280;4667;42.726;23.252;2023-09-30T08:22:10;95690.25;;;29.55;22.32
9261;BME280;4667;42.726;23.252;2023-09-30T08:24:37;95665.94;;;29.08;22.65
9261;BME280;4667;42.726;23.252;2023-09-30T08:27:03;95588.34;;;28.71;22.27
9261;BME280;4667;42.726;23.252;2023-09-30T08:29:33;95556.84;;;28.67;22.35
9261;BME280;4667;42.726;23.252;2023-09-30T08:32:00;95701.81;;;29.91;21.79
9261;BME280;4667;42.726;23.252;2023-09-30T08:34:29;95584.56;;;29.73;21.23
9261;BME280;4667;42.726;23.252;2023-09-30T08:36:56;95253.66;;;27.28;20.48
9261;BME280;4667;42.726;23.252;2023-09-30T08:39:23;95697.56;;;30.82;20.54
9261;BME280;4667;42.726;23.252;2023-09-30T08:41:50;95698.03;;;31.14;19.79
9261;BME280;4667;42.726;23.252;2023-09-30T08:44:17;95682.81;;;31.39;20.13
9261;BME280;4667;42.726;23.252;2023-09-30T08:46:44;95667.84;;;31.26;20.10
9261;BME280;4667;42.726;23.252;2023-09-30T08:49:11;95518.31;;;30.31;19.32
9261;BME280;4667;42.726;23.252;2023-09-30T08:51:41;95681.50;;;31.93;19.16
9261;BME280;4667;42.726;23.252;2023-09-30T08:54:08;95683.94;;;32.43;18.61
9261;BME280;4667;42.726;23.252;2023-09-30T08:56:35;95686.84;;;32.64;18.64
9261;BME280;4667;42.726;23.252;2023-09-30T08:59:03;95682.69;;;32.84;18.43
9261;BME280;4667;42.726;23.252;2023-09-30T09:01:31;95681.47;;;32.75;18.00
9261;BME280;4667;42.726;23.252;2023-09-30T09:03:58;95654.44;;;32.59;18.19
9261;BME280;4667;42.726;23.252;2023-09-30T09:06:25;95571.97;;;32.39;17.68
9261;BME280;4667;42.726;23.252;2023-09-30T09:08:54;95669.97;;;32.51;18.02
9261;BME280;4667;42.726;23.252;2023-09-30T09:11:20;95616.31;;;32.25;17.85
9261;BME280;4667;42.726;23.252;2023-09-30T09:13:52;95675.81;;;32.50;18.27
9261;BME280;4667;42.726;23.252;2023-09-30T09:16:21;95675.22;;;32.74;18.01
9261;BME280;4667;42.726;23.252;2023-09-30T09:18:49;95671.31;;;32.75;17.85
9261;BME280;4667;42.726;23.252;2023-09-30T09:21:17;95662.47;;;32.89;17.88
9261;BME280;4667;42.726;23.252;2023-09-30T09:23:46;95668.75;;;32.93;17.45
9261;BME280;4667;42.726;23.252;2023-09-30T09:26:23;95667.03;;;32.74;17.10
9261;BME280;4667;42.726;23.252;2023-09-30T09:28:56;95658.50;;;32.83;17.32
9261;BME280;4667;42.726;23.252;2023-09-30T09:31:25;95661.91;;;33.31;17.59
9261;BME280;4667;42.726;23.252;2023-09-30T09:33:52;95651.41;;;33.41;16.79
9261;BME280;4667;42.726;23.252;2023-09-30T09:36:19;95643.72;;;33.71;16.52
9261;BME280;4667;42.726;23.252;2023-09-30T09:38:49;95652.38;;;33.84;16.64
9261;BME280;4667;42.726;23.252;2023-09-30T09:41:20;95637.72;;;33.37;16.80
9261;BME280;4667;42.726;23.252;2023-09-30T09:43:48;95653.47;;;33.65;16.47
9261;BME280;4667;42.726;23.252;2023-09-30T09:46:17;95646.13;;;33.91;16.61
9261;BME280;4667;42.726;23.252;2023-09-30T09:48:45;95616.41;;;33.93;16.16
9261;BME280;4667;42.726;23.252;2023-09-30T09:51:12;95647.75;;;34.09;16.54
9261;BME280;4667;42.726;23.252;2023-09-30T09:53:41;95636.41;;;34.39;15.83
9261;BME280;4667;42.726;23.252;2023-09-30T09:56:09;95638.34;;;34.18;16.11
9261;BME280;4667;42.726;23.252;2023-09-30T09:58:39;95636.03;;;34.30;15.78
9261;BME280;4667;42.726;23.252;2023-09-30T10:01:08;95623.09;;;34.34;16.03
9261;BME280;4667;42.726;23.252;2023-09-30T10:03:36;95637.19;;;34.15;15.86
9261;BME280;4667;42.726;23.252;2023-09-30T10:06:03;95632.91;;;34.25;16.30
9261;BME280;4667;42.726;23.252;2023-09-30T10:08:33;95598.44;;;34.34;16.03
9261;BME280;4667;42.726;23.252;2023-09-30T10:11:02;95622.34;;;34.45;15.70
9261;BME280;4667;42.726;23.252;2023-09-30T10:13:55;95617.25;;;34.57;14.92
9261;BME280;4667;42.726;23.252;2023-09-30T10:16:49;95625.88;;;34.52;15.44
9261;BME280;4667;42.726;23.252;2023-09-30T10:19:18;95627.41;;;34.75;14.74
9261;BME280;4667;42.726;23.252;2023-09-30T10:24:52;95617.22;;;34.86;13.95
9261;BME280;4667;42.726;23.252;2023-09-30T10:27:43;95621.94;;;34.32;14.11
9261;BME280;4667;42.726;23.252;2023-09-30T10:30:13;95612.53;;;34.22;14.31
9261;BME280;4667;42.726;23.252;2023-09-30T10:33:12;95614.13;;;34.30;14.31
9261;BME280;4667;42.726;23.252;2023-09-30T10:35:45;95615.31;;;34.51;13.97
9261;BME280;4667;42.726;23.252;2023-09-30T10:38:37;95614.09;;;34.34;14.26
9261;BME280;4667;42.726;23.252;2023-09-30T10:41:09;95605.09;;;34.44;13.80
9261;BME280;4667;42.726;23.252;2023-09-30T10:43:38;95603.16;;;34.41;13.68
9261;BME280;4667;42.726;23.252;2023-09-30T10:46:33;95596.53;;;34.56;13.65
9261;BME280;4667;42.726;23.252;2023-09-30T10:49:31;95594.91;;;34.87;13.63
9261;BME280;4667;42.726;23.252;2023-09-30T10:51:59;95582.06;;;34.20;14.10
9261;BME280;4667;42.726;23.252;2023-09-30T10:54:27;95559.38;;;34.05;13.95
9261;BME280;4667;42.726;23.252;2023-09-30T10:56:55;95574.25;;;34.04;14.80
9261;BME280;4667;42.726;23.252;2023-09-30T10:59:25;95579.72;;;34.47;13.64
9261;BME280;4667;42.726;23.252;2023-09-30T11:01:54;95584.78;;;34.09;14.73
9261;BME280;4667;42.726;23.252;2023-09-30T11:04:20;95589.47;;;34.37;13.87
9261;BME280;4667;42.726;23.252;2023-09-30T11:06:48;95571.09;;;34.27;13.75
9261;BME280;4667;42.726;23.252;2023-09-30T11:09:17;95576.94;;;34.19;13.62
9261;BME280;4667;42.726;23.252;2023-09-30T11:11:45;95538.19;;;33.45;14.25
9261;BME280;4667;42.726;23.252;2023-09-30T11:14:19;95564.78;;;33.77;14.47
9261;BME280;4667;42.726;23.252;2023-09-30T11:16:46;95568.75;;;34.08;14.54
9261;BME280;4667;42.726;23.252;2023-09-30T11:19:15;95543.72;;;33.99;13.97
9261;BME280;4667;42.726;23.252;2023-09-30T11:21:42;95565.63;;;34.20;13.87
9261;BME280;4667;42.726;23.252;2023-09-30T11:24:13;95562.09;;;34.30;14.09
9261;BME280;4667;42.726;23.252;2023-09-30T11:26:40;95545.66;;;34.34;14.00
9261;BME280;4667;42.726;23.252;2023-09-30T11:29:08;95564.84;;;34.30;13.89
9261;BME280;4667;42.726;23.252;2023-09-30T11:31:37;95564.06;;;34.51;13.66
9261;BME280;4667;42.726;23.252;2023-09-30T11:34:04;95557.31;;;34.88;14.32
9261;BME280;4667;42.726;23.252;2023-09-30T11:36:37;95538.97;;;34.71;13.74
9261;BME280;4667;42.726;23.252;2023-09-30T11:39:04;95549.34;;;35.26;13.47
9261;BME280;4667;42.726;23.252;2023-09-30T11:41:35;95551.69;;;35.27;13.72
9261;BME280;4667;42.726;23.252;2023-09-30T11:44:05;95550.25;;;34.98;13.91
9261;BME280;4667;42.726;23.252;2023-09-30T11:46:53;95477.13;;;34.70;13.57
9261;BME280;4667;42.726;23.252;2023-09-30T11:49:28;95547.41;;;35.23;13.58
9261;BME280;4667;42.726;23.252;2023-09-30T11:51:57;95508.09;;;34.56;14.18
9261;BME280;4667;42.726;23.252;2023-09-30T11:54:29;95540.03;;;35.09;14.08
9261;BME280;4667;42.726;23.252;2023-09-30T11:56:56;95506.38;;;35.05;13.95
9261;BME280;4667;42.726;23.252;2023-09-30T11:59:24;95536.44;;;35.23;14.00
9261;BME280;4667;42.726;23.252;2023-09-30T12:01:50;95521.69;;;34.88;13.78
9261;BME280;4667;42.726;23.252;2023-09-30T12:04:18;95428.75;;;34.13;14.23
9261;BME280;4667;42.726;23.252;2023-09-30T12:06:45;95525.25;;;34.74;14.46
9261;BME280;4667;42.726;23.252;2023-09-30T12:09:15;95509.63;;;34.68;13.51
9261;BME280;4667;42.726;23.252;2023-09-30T12:11:42;95479.44;;;34.78;13.86
9261;BME280;4667;42.726;23.252;2023-09-30T12:14:11;95526.19;;;35.34;13.37
9261;BME280;4667;42.726;23.252;2023-09-30T12:16:38;95521.50;;;35.34;13.73
9261;BME280;4667;42.726;23.252;2023-09-30T12:19:07;95516.19;;;34.88;14.20
9261;BME280;4667;42.726;23.252;2023-09-30T12:21:34;95464.63;;;34.65;13.84
9261;BME280;4667;42.726;23.252;2023-09-30T12:24:02;95476.34;;;34.69;14.02
9261;BME280;4667;42.726;23.252;2023-09-30T12:26:31;95454.50;;;34.48;14.16
9261;BME280;4667;42.726;23.252;2023-09-30T12:28:57;95493.69;;;34.20;14.10
9261;BME280;4667;42.726;23.252;2023-09-30T12:31:25;95507.31;;;34.34;14.05
9261;BME280;4667;42.726;23.252;2023-09-30T12:33:51;95500.34;;;34.04;14.31
9261;BME280;4667;42.726;23.252;2023-09-30T12:36:19;95488.16;;;34.41;14.26
9261;BME280;4667;42.726;23.252;2023-09-30T12:38:47;95499.09;;;34.37;13.97
9261;BME280;4667;42.726;23.252;2023-09-30T12:41:13;95492.06;;;34.44;14.19
9261;BME280;4667;42.726;23.252;2023-09-30T12:43:42;95438.53;;;34.21;14.33
9261;BME280;4667;42.726;23.252;2023-09-30T12:46:10;95496.59;;;34.93;13.55
9261;BME280;4667;42.726;23.252;2023-09-30T12:48:39;95496.25;;;34.87;13.53
9261;BME280;4667;42.726;23.252;2023-09-30T12:51:05;95488.09;;;34.70;13.74
9261;BME280;4667;42.726;23.252;2023-09-30T12:53:34;95475.56;;;34.72;13.34
9261;BME280;4667;42.726;23.252;2023-09-30T12:56:01;95474.66;;;35.07;13.30
9261;BME280;4667;42.726;23.252;2023-09-30T12:58:28;95492.31;;;34.92;13.74
9261;BME280;4667;42.726;23.252;2023-09-30T13:00:56;95490.78;;;34.80;13.79
9261;BME280;4667;42.726;23.252;2023-09-30T13:03:23;95471.72;;;34.55;13.78
9261;BME280;4667;42.726;23.252;2023-09-30T13:05:50;95426.06;;;33.99;14.06
9261;BME280;4667;42.726;23.252;2023-09-30T13:08:17;95482.31;;;34.35;13.92
9261;BME280;4667;42.726;23.252;2023-09-30T13:10:43;95477.69;;;34.00;14.23
9261;BME280;4667;42.726;23.252;2023-09-30T13:13:11;95476.88;;;34.07;14.29
9261;BME280;4667;42.726;23.252;2023-09-30T13:15:37;95470.94;;;34.48;14.57
9261;BME280;4667;42.726;23.252;2023-09-30T13:18:06;95471.34;;;34.28;14.48